KSYI/SYI METAR and TAF weather

Enter ICAO airport designator
Station Type Date Time Source
KSYI METAR 2022/11/27 08:15 UTC NOAA

KSYI 270815Z AUTO 15013G19KT 120V180 9SM BKN018 BKN025 OVC030 16/14 A2962 RMK A01


Station Type Date Time Source
KSYI Decoded METAR 2022/11/27 08:15 UTC NOAA

Station name not available
Nov 27, 2022 - 03:15 AM EST / 2022.11.27 0815 UTC
Wind: from the SSE (150 degrees) at 15 MPH (13 KT) gusting to 22 MPH (19 KT) (direction variable):0
Visibility: 9 mile(s):0
Sky conditions: overcast
Temperature: 60 F (16 C)
Dew Point: 57 F (14 C)
Relative Humidity: 87%
Pressure (altimeter): 29.62 in. Hg (1003 hPa)
ob: KSYI 270815Z AUTO 15013G19KT 120V180 9SM BKN018 BKN025 OVC030 16/14 A2962 RMK A01
cycle: 8

Station Type Date Time Source
KSYI TAF UTC NOAA

Error!

Example: see airport list